sensor_id;sensor_type;location;lat;lon;timestamp;pressure;altitude;pressure_sealevel;temperature;humidity
75231;BME280;63814;50.118;8.714;2022-09-30T00:01:13;99453.72;;;8.06;76.14
75231;BME280;63814;50.118;8.714;2022-09-30T00:03:40;99460.63;;;8.07;76.48
75231;BME280;63814;50.118;8.714;2022-09-30T00:06:08;99460.81;;;8.04;75.99
75231;BME280;63814;50.118;8.714;2022-09-30T00:08:36;99458.66;;;7.96;76.70
75231;BME280;63814;50.118;8.714;2022-09-30T00:11:05;99461.25;;;7.96;75.97
75231;BME280;63814;50.118;8.714;2022-09-30T00:13:37;99459.41;;;7.98;76.52
75231;BME280;63814;50.118;8.714;2022-09-30T00:16:07;99458.66;;;7.96;76.67
75231;BME280;63814;50.118;8.714;2022-09-30T00:18:34;99458.34;;;7.86;76.83
75231;BME280;63814;50.118;8.714;2022-09-30T00:21:01;99463.50;;;7.88;76.89
75231;BME280;63814;50.118;8.714;2022-09-30T00:23:28;99466.94;;;7.88;76.74
75231;BME280;63814;50.118;8.714;2022-09-30T00:25:57;99467.69;;;7.90;76.75
75231;BME280;63814;50.118;8.714;2022-09-30T00:28:24;99418.13;;;7.60;77.16
75231;BME280;63814;50.118;8.714;2022-09-30T00:30:50;99463.69;;;7.85;77.11
75231;BME280;63814;50.118;8.714;2022-09-30T00:33:18;99446.50;;;7.81;76.62
75231;BME280;63814;50.118;8.714;2022-09-30T00:35:45;99450.97;;;7.78;77.23
75231;BME280;63814;50.118;8.714;2022-09-30T00:38:11;99458.06;;;7.76;77.06
75231;BME280;63814;50.118;8.714;2022-09-30T00:40:38;99454.22;;;7.68;76.91
75231;BME280;63814;50.118;8.714;2022-09-30T00:43:11;99460.47;;;7.65;77.39
75231;BME280;63814;50.118;8.714;2022-09-30T00:45:38;99451.50;;;7.55;76.77
75231;BME280;63814;50.118;8.714;2022-09-30T00:48:07;99476.09;;;7.65;77.44
75231;BME280;63814;50.118;8.714;2022-09-30T00:50:38;99479.81;;;7.61;77.47
75231;BME280;63814;50.118;8.714;2022-09-30T00:53:09;99483.53;;;7.57;77.29
75231;BME280;63814;50.118;8.714;2022-09-30T00:55:45;99481.09;;;7.54;77.95
75231;BME280;63814;50.118;8.714;2022-09-30T00:58:15;99485.28;;;7.56;77.67
75231;BME280;63814;50.118;8.714;2022-09-30T01:00:43;99482.03;;;7.53;77.54
75231;BME280;63814;50.118;8.714;2022-09-30T01:03:10;99469.59;;;7.42;76.93
75231;BME280;63814;50.118;8.714;2022-09-30T01:05:38;99478.84;;;7.47;77.81
75231;BME280;63814;50.118;8.714;2022-09-30T01:08:05;99482.97;;;7.52;77.42
75231;BME280;63814;50.118;8.714;2022-09-30T01:10:34;99489.28;;;7.47;77.68
75231;BME280;63814;50.118;8.714;2022-09-30T01:13:00;99481.22;;;7.36;78.11
75231;BME280;63814;50.118;8.714;2022-09-30T01:15:35;99475.16;;;7.35;77.84
75231;BME280;63814;50.118;8.714;2022-09-30T01:18:11;99477.00;;;7.33;78.13
75231;BME280;63814;50.118;8.714;2022-09-30T01:20:55;99482.31;;;7.32;78.17
75231;BME280;63814;50.118;8.714;2022-09-30T01:23:49;99493.59;;;7.32;77.75
75231;BME280;63814;50.118;8.714;2022-09-30T01:26:49;99494.84;;;7.25;78.18
75231;BME280;63814;50.118;8.714;2022-09-30T01:29:33;99474.78;;;7.11;77.73
75231;BME280;63814;50.118;8.714;2022-09-30T01:32:15;99498.81;;;7.32;77.79
75231;BME280;63814;50.118;8.714;2022-09-30T01:34:51;99465.03;;;6.99;77.78
75231;BME280;63814;50.118;8.714;2022-09-30T01:37:24;99500.50;;;7.17;78.42
75231;BME280;63814;50.118;8.714;2022-09-30T01:40:02;99481.06;;;7.07;78.64
75231;BME280;63814;50.118;8.714;2022-09-30T01:42:36;99487.97;;;7.08;78.45
75231;BME280;63814;50.118;8.714;2022-09-30T01:45:09;99498.06;;;7.14;78.38
75231;BME280;63814;50.118;8.714;2022-09-30T01:47:45;99500.75;;;7.13;77.86
75231;BME280;63814;50.118;8.714;2022-09-30T01:50:17;99476.19;;;7.01;78.35
75231;BME280;63814;50.118;8.714;2022-09-30T01:52:49;99494.84;;;6.93;78.04
75231;BME280;63814;50.118;8.714;2022-09-30T01:55:20;99497.06;;;7.01;78.11
75231;BME280;63814;50.118;8.714;2022-09-30T01:57:53;99504.63;;;7.05;78.23
75231;BME280;63814;50.118;8.714;2022-09-30T02:00:23;99509.25;;;7.16;78.04
75231;BME280;63814;50.118;8.714;2022-09-30T02:02:53;99509.00;;;7.05;77.76
75231;BME280;63814;50.118;8.714;2022-09-30T02:05:25;99426.75;;;6.51;78.14
75231;BME280;63814;50.118;8.714;2022-09-30T02:07:56;99491.66;;;6.88;78.27
75231;BME280;63814;50.118;8.714;2022-09-30T02:10:27;99505.63;;;6.87;79.02
75231;BME280;63814;50.118;8.714;2022-09-30T02:13:02;99515.19;;;6.86;78.39
75231;BME280;63814;50.118;8.714;2022-09-30T02:15:35;99510.31;;;6.80;78.43
75231;BME280;63814;50.118;8.714;2022-09-30T02:18:16;99489.78;;;6.74;78.23
75231;BME280;63814;50.118;8.714;2022-09-30T02:20:46;99517.19;;;6.81;78.80
75231;BME280;63814;50.118;8.714;2022-09-30T02:23:18;99507.88;;;6.77;78.94
75231;BME280;63814;50.118;8.714;2022-09-30T02:25:51;99514.03;;;6.76;78.09
75231;BME280;63814;50.118;8.714;2022-09-30T02:28:23;99519.22;;;6.76;78.13
75231;BME280;63814;50.118;8.714;2022-09-30T02:30:54;99516.78;;;6.73;78.83
75231;BME280;63814;50.118;8.714;2022-09-30T02:33:27;99514.34;;;6.70;78.36
75231;BME280;63814;50.118;8.714;2022-09-30T02:36:00;99515.09;;;6.72;78.76
75231;BME280;63814;50.118;8.714;2022-09-30T02:38:32;99499.34;;;6.57;78.75
75231;BME280;63814;50.118;8.714;2022-09-30T02:41:05;99517.28;;;6.63;78.96
75231;BME280;63814;50.118;8.714;2022-09-30T02:43:35;99494.63;;;6.48;78.64
75231;BME280;63814;50.118;8.714;2022-09-30T02:46:07;99518.44;;;6.58;78.39
75231;BME280;63814;50.118;8.714;2022-09-30T02:48:42;99525.47;;;6.55;78.13
75231;BME280;63814;50.118;8.714;2022-09-30T02:51:16;99530.94;;;6.51;78.80
75231;BME280;63814;50.118;8.714;2022-09-30T02:53:50;99537.13;;;6.48;78.58
75231;BME280;63814;50.118;8.714;2022-09-30T02:56:23;99534.63;;;6.47;78.66
75231;BME280;63814;50.118;8.714;2022-09-30T02:58:54;99540.59;;;6.49;78.54
75231;BME280;63814;50.118;8.714;2022-09-30T03:01:21;99543.34;;;6.46;78.67
75231;BME280;63814;50.118;8.714;2022-09-30T03:03:53;99547.03;;;6.41;78.30
75231;BME280;63814;50.118;8.714;2022-09-30T03:06:22;99560.00;;;6.43;78.72
75231;BME280;63814;50.118;8.714;2022-09-30T03:08:50;99555.78;;;6.40;79.37
75231;BME280;63814;50.118;8.714;2022-09-30T03:11:19;99566.19;;;6.40;78.77
75231;BME280;63814;50.118;8.714;2022-09-30T03:14:08;99567.31;;;6.35;78.80
75231;BME280;63814;50.118;8.714;2022-09-30T03:16:52;99557.94;;;6.32;79.21
75231;BME280;63814;50.118;8.714;2022-09-30T03:19:35;99559.91;;;6.27;78.35
75231;BME280;63814;50.118;8.714;2022-09-30T03:22:17;99567.81;;;6.25;78.96
75231;BME280;63814;50.118;8.714;2022-09-30T03:25:10;99565.19;;;6.25;78.63
75231;BME280;63814;50.118;8.714;2022-09-30T03:27:47;99546.59;;;6.16;78.78
75231;BME280;63814;50.118;8.714;2022-09-30T03:30:19;99566.28;;;6.21;78.64
75231;BME280;63814;50.118;8.714;2022-09-30T03:32:57;99551.03;;;6.13;78.10
75231;BME280;63814;50.118;8.714;2022-09-30T03:35:32;99561.38;;;6.15;78.71
75231;BME280;63814;50.118;8.714;2022-09-30T03:38:09;99561.28;;;6.17;78.76
75231;BME280;63814;50.118;8.714;2022-09-30T03:40:42;99561.38;;;6.15;78.62
75231;BME280;63814;50.118;8.714;2022-09-30T03:43:18;99566.91;;;6.09;78.37
75231;BME280;63814;50.118;8.714;2022-09-30T03:45:49;99570.31;;;6.09;79.19
75231;BME280;63814;50.118;8.714;2022-09-30T03:48:18;99556.78;;;6.03;79.07
75231;BME280;63814;50.118;8.714;2022-09-30T03:50:47;99571.41;;;6.05;78.44
75231;BME280;63814;50.118;8.714;2022-09-30T03:53:14;99568.03;;;6.03;79.29
75231;BME280;63814;50.118;8.714;2022-09-30T03:55:46;99570.63;;;6.03;78.73
75231;BME280;63814;50.118;8.714;2022-09-30T03:58:13;99566.53;;;5.97;78.76
75231;BME280;63814;50.118;8.714;2022-09-30T04:00:42;99570.00;;;5.98;78.93
75231;BME280;63814;50.118;8.714;2022-09-30T04:03:11;99570.06;;;5.96;79.17
75231;BME280;63814;50.118;8.714;2022-09-30T04:05:38;99577.81;;;5.98;78.45
75231;BME280;63814;50.118;8.714;2022-09-30T04:08:05;99577.00;;;5.96;79.00
75231;BME280;63814;50.118;8.714;2022-09-30T04:10:32;99581.88;;;6.04;78.35
75231;BME280;63814;50.118;8.714;2022-09-30T04:12:58;99590.03;;;5.96;79.16
75231;BME280;63814;50.118;8.714;2022-09-30T04:15:25;99590.19;;;5.93;78.78
75231;BME280;63814;50.118;8.714;2022-09-30T04:17:52;99572.72;;;5.77;79.17
75231;BME280;63814;50.118;8.714;2022-09-30T04:20:18;99586.56;;;5.78;79.07
75231;BME280;63814;50.118;8.714;2022-09-30T04:22:45;99588.16;;;5.80;79.17
75231;BME280;63814;50.118;8.714;2022-09-30T04:25:13;99599.84;;;5.91;78.52
75231;BME280;63814;50.118;8.714;2022-09-30T04:27:39;99602.56;;;5.87;78.99
75231;BME280;63814;50.118;8.714;2022-09-30T04:30:06;99601.19;;;5.80;78.29
75231;BME280;63814;50.118;8.714;2022-09-30T04:32:33;99593.19;;;5.66;79.36
75231;BME280;63814;50.118;8.714;2022-09-30T04:34:59;99609.16;;;5.77;78.75
75231;BME280;63814;50.118;8.714;2022-09-30T04:37:26;99605.09;;;5.71;79.24
75231;BME280;63814;50.118;8.714;2022-09-30T04:39:52;99611.06;;;5.73;78.82
75231;BME280;63814;50.118;8.714;2022-09-30T04:42:20;99613.78;;;5.70;79.43
75231;BME280;63814;50.118;8.714;2022-09-30T04:44:46;99626.94;;;5.67;78.98
75231;BME280;63814;50.118;8.714;2022-09-30T04:47:13;99601.59;;;5.53;79.18
75231;BME280;63814;50.118;8.714;2022-09-30T04:49:39;99616.53;;;5.67;79.14
75231;BME280;63814;50.118;8.714;2022-09-30T04:52:06;99621.03;;;5.64;80.03
75231;BME280;63814;50.118;8.714;2022-09-30T04:54:32;99630.53;;;5.65;79.87
75231;BME280;63814;50.118;8.714;2022-09-30T04:56:59;99623.00;;;5.58;79.63
75231;BME280;63814;50.118;8.714;2022-09-30T04:59:26;99627.16;;;5.63;79.67
75231;BME280;63814;50.118;8.714;2022-09-30T05:01:53;99637.84;;;5.56;79.51
75231;BME280;63814;50.118;8.714;2022-09-30T05:04:19;99620.69;;;5.52;79.90
75231;BME280;63814;50.118;8.714;2022-09-30T05:06:46;99630.97;;;5.55;79.43
75231;BME280;63814;50.118;8.714;2022-09-30T05:09:13;99638.88;;;5.52;79.97
75231;BME280;63814;50.118;8.714;2022-09-30T05:11:40;99640.44;;;5.56;80.14
75231;BME280;63814;50.118;8.714;2022-09-30T05:14:07;99619.84;;;5.52;79.39
75231;BME280;63814;50.118;8.714;2022-09-30T05:16:35;99580.50;;;5.21;78.79
75231;BME280;63814;50.118;8.714;2022-09-30T05:19:02;99661.03;;;5.61;79.26
75231;BME280;63814;50.118;8.714;2022-09-30T05:21:29;99658.72;;;5.55;79.19
75231;BME280;63814;50.118;8.714;2022-09-30T05:23:55;99662.16;;;5.55;79.74
75231;BME280;63814;50.118;8.714;2022-09-30T05:26:22;99659.91;;;5.48;79.47
75231;BME280;63814;50.118;8.714;2022-09-30T05:28:48;99665.91;;;5.50;79.72
75231;BME280;63814;50.118;8.714;2022-09-30T05:31:15;99663.31;;;5.50;79.69
75231;BME280;63814;50.118;8.714;2022-09-30T05:33:43;99665.81;;;5.51;79.96
75231;BME280;63814;50.118;8.714;2022-09-30T05:36:12;99668.50;;;5.50;79.67
75231;BME280;63814;50.118;8.714;2022-09-30T05:38:39;99667.88;;;5.44;79.52
75231;BME280;63814;50.118;8.714;2022-09-30T05:41:06;99666.09;;;5.45;79.66
75231;BME280;63814;50.118;8.714;2022-09-30T05:43:36;99651.06;;;5.32;79.77
75231;BME280;63814;50.118;8.714;2022-09-30T05:46:03;99683.19;;;5.51;78.95
75231;BME280;63814;50.118;8.714;2022-09-30T05:48:29;99669.19;;;5.34;79.46
75231;BME280;63814;50.118;8.714;2022-09-30T05:50:58;99707.50;;;5.50;79.73
75231;BME280;63814;50.118;8.714;2022-09-30T05:53:26;99706.50;;;5.52;79.28
75231;BME280;63814;50.118;8.714;2022-09-30T05:55:52;99715.09;;;5.54;78.62
75231;BME280;63814;50.118;8.714;2022-09-30T05:58:19;99650.41;;;5.08;79.21
75231;BME280;63814;50.118;8.714;2022-09-30T06:00:46;99728.09;;;5.54;79.34
75231;BME280;63814;50.118;8.714;2022-09-30T06:03:14;99720.56;;;5.48;78.97
75231;BME280;63814;50.118;8.714;2022-09-30T06:05:41;99731.63;;;5.53;78.99
75231;BME280;63814;50.118;8.714;2022-09-30T06:08:10;99718.69;;;5.52;79.31
75231;BME280;63814;50.118;8.714;2022-09-30T06:10:39;99731.22;;;5.63;79.25
75231;BME280;63814;50.118;8.714;2022-09-30T06:13:06;99727.03;;;5.58;79.00
75231;BME280;63814;50.118;8.714;2022-09-30T06:15:32;99718.63;;;5.53;78.61
75231;BME280;63814;50.118;8.714;2022-09-30T06:18:02;99662.84;;;5.21;78.58
75231;BME280;63814;50.118;8.714;2022-09-30T06:20:29;99730.13;;;5.67;78.93
75231;BME280;63814;50.118;8.714;2022-09-30T06:22:58;99745.47;;;5.73;78.84
75231;BME280;63814;50.118;8.714;2022-09-30T06:25:26;99744.72;;;5.71;78.97
75231;BME280;63814;50.118;8.714;2022-09-30T06:27:52;99750.56;;;5.76;78.62
75231;BME280;63814;50.118;8.714;2022-09-30T06:30:19;99756.59;;;5.77;78.77
75231;BME280;63814;50.118;8.714;2022-09-30T06:32:46;99752.94;;;5.81;78.52
75231;BME280;63814;50.118;8.714;2022-09-30T06:35:12;99754.69;;;5.80;78.70
75231;BME280;63814;50.118;8.714;2022-09-30T06:37:39;99743.66;;;5.75;79.85
75231;BME280;63814;50.118;8.714;2022-09-30T06:40:07;99747.03;;;5.96;77.99
75231;BME280;63814;50.118;8.714;2022-09-30T06:42:35;99747.31;;;6.09;77.72
75231;BME280;63814;50.118;8.714;2022-09-30T06:45:01;99740.50;;;6.07;78.00
75231;BME280;63814;50.118;8.714;2022-09-30T06:47:28;99741.91;;;6.14;77.59
75231;BME280;63814;50.118;8.714;2022-09-30T06:49:57;99749.41;;;6.20;78.06
75231;BME280;63814;50.118;8.714;2022-09-30T06:52:24;99753.94;;;6.17;78.10
75231;BME280;63814;50.118;8.714;2022-09-30T06:54:51;99748.03;;;6.13;78.36
75231;BME280;63814;50.118;8.714;2022-09-30T06:57:21;99753.31;;;6.11;78.68
75231;BME280;63814;50.118;8.714;2022-09-30T06:59:50;99749.09;;;6.09;77.96
75231;BME280;63814;50.118;8.714;2022-09-30T07:02:17;99762.72;;;6.14;78.58
75231;BME280;63814;50.118;8.714;2022-09-30T07:04:44;99761.91;;;6.13;78.50
75231;BME280;63814;50.118;8.714;2022-09-30T07:07:10;99774.69;;;6.18;78.47
75231;BME280;63814;50.118;8.714;2022-09-30T07:09:37;99760.75;;;6.19;79.17
75231;BME280;63814;50.118;8.714;2022-09-30T07:12:03;99765.69;;;6.25;78.60
75231;BME280;63814;50.118;8.714;2022-09-30T07:14:31;99763.94;;;6.26;78.61
75231;BME280;63814;50.118;8.714;2022-09-30T07:17:01;99774.53;;;6.40;78.48
75231;BME280;63814;50.118;8.714;2022-09-30T07:19:28;99770.03;;;6.44;78.31
75231;BME280;63814;50.118;8.714;2022-09-30T07:21:55;99766.72;;;6.40;79.00
75231;BME280;63814;50.118;8.714;2022-09-30T07:24:43;99760.59;;;6.41;77.79
75231;BME280;63814;50.118;8.714;2022-09-30T07:27:09;99775.78;;;6.51;78.35
75231;BME280;63814;50.118;8.714;2022-09-30T07:29:38;99766.75;;;6.58;77.82
75231;BME280;63814;50.118;8.714;2022-09-30T07:32:06;99764.22;;;6.57;78.72
75231;BME280;63814;50.118;8.714;2022-09-30T07:34:33;99775.03;;;6.66;78.41
75231;BME280;63814;50.118;8.714;2022-09-30T07:36:59;99785.91;;;6.75;77.78
75231;BME280;63814;50.118;8.714;2022-09-30T07:39:27;99789.78;;;6.85;77.71
75231;BME280;63814;50.118;8.714;2022-09-30T07:41:55;99791.16;;;6.92;77.05
75231;BME280;63814;50.118;8.714;2022-09-30T07:44:22;99791.97;;;6.93;76.73
75231;BME280;63814;50.118;8.714;2022-09-30T07:46:50;99800.44;;;6.98;76.80
75231;BME280;63814;50.118;8.714;2022-09-30T07:49:18;99800.97;;;7.05;76.89
75231;BME280;63814;50.118;8.714;2022-09-30T07:51:49;99782.25;;;6.96;76.96
75231;BME280;63814;50.118;8.714;2022-09-30T07:54:17;99800.81;;;7.08;76.88
75231;BME280;63814;50.118;8.714;2022-09-30T07:56:45;99805.72;;;7.14;76.85
75231;BME280;63814;50.118;8.714;2022-09-30T07:59:12;99798.53;;;7.19;77.31
75231;BME280;63814;50.118;8.714;2022-09-30T08:01:38;99812.47;;;7.36;77.49
75231;BME280;63814;50.118;8.714;2022-09-30T08:04:07;99796.06;;;7.34;77.42
75231;BME280;63814;50.118;8.714;2022-09-30T08:06:38;99775.88;;;7.20;76.75
75231;BME280;63814;50.118;8.714;2022-09-30T08:09:06;99824.41;;;7.58;76.67
75231;BME280;63814;50.118;8.714;2022-09-30T08:11:34;99817.69;;;7.70;76.58
75231;BME280;63814;50.118;8.714;2022-09-30T08:14:00;99825.28;;;7.74;75.97
75231;BME280;63814;50.118;8.714;2022-09-30T08:16:27;99830.50;;;7.74;75.64
75231;BME280;63814;50.118;8.714;2022-09-30T08:18:53;99827.81;;;7.76;75.47
75231;BME280;63814;50.118;8.714;2022-09-30T08:21:21;99805.25;;;7.75;75.86
75231;BME280;63814;50.118;8.714;2022-09-30T08:23:49;99833.84;;;7.94;75.46
75231;BME280;63814;50.118;8.714;2022-09-30T08:26:16;99819.88;;;7.95;74.51
75231;BME280;63814;50.118;8.714;2022-09-30T08:28:42;99826.72;;;8.14;74.33
75231;BME280;63814;50.118;8.714;2022-09-30T08:31:13;99761.56;;;7.78;74.13
75231;BME280;63814;50.118;8.714;2022-09-30T08:33:40;99828.56;;;8.28;73.42
75231;BME280;63814;50.118;8.714;2022-09-30T08:36:09;99827.63;;;8.29;73.64
75231;BME280;63814;50.118;8.714;2022-09-30T08:38:36;99843.56;;;8.40;72.56
75231;BME280;63814;50.118;8.714;2022-09-30T08:41:12;99841.81;;;8.41;72.20
75231;BME280;63814;50.118;8.714;2022-09-30T08:43:50;99852.28;;;8.57;72.34
75231;BME280;63814;50.118;8.714;2022-09-30T08:46:30;99846.63;;;8.81;71.51
75231;BME280;63814;50.118;8.714;2022-09-30T08:49:05;99849.63;;;9.05;70.64
75231;BME280;63814;50.118;8.714;2022-09-30T08:51:38;99843.25;;;9.40;69.95
75231;BME280;63814;50.118;8.714;2022-09-30T08:54:11;99832.81;;;9.69;68.26
75231;BME280;63814;50.118;8.714;2022-09-30T08:56:42;99814.03;;;9.91;67.06
75231;BME280;63814;50.118;8.714;2022-09-30T08:59:20;99822.75;;;10.48;65.53
75231;BME280;63814;50.118;8.714;2022-09-30T09:01:54;99824.97;;;11.23;63.81
75231;BME280;63814;50.118;8.714;2022-09-30T09:04:24;99814.91;;;11.81;61.68
75231;BME280;63814;50.118;8.714;2022-09-30T09:06:56;99811.84;;;12.51;61.15
75231;BME280;63814;50.118;8.714;2022-09-30T09:09:38;99809.25;;;13.22;58.01
75231;BME280;63814;50.118;8.714;2022-09-30T09:12:21;99805.63;;;14.93;53.94
75231;BME280;63814;50.118;8.714;2022-09-30T09:15:07;99813.50;;;16.10;49.05
75231;BME280;63814;50.118;8.714;2022-09-30T09:17:55;99803.13;;;17.74;45.14
75231;BME280;63814;50.118;8.714;2022-09-30T09:20:30;99803.63;;;18.80;42.65
75231;BME280;63814;50.118;8.714;2022-09-30T09:23:00;99792.38;;;19.84;41.22
75231;BME280;63814;50.118;8.714;2022-09-30T09:25:27;99793.34;;;20.26;39.23
75231;BME280;63814;50.118;8.714;2022-09-30T09:27:57;99791.63;;;21.01;38.06
75231;BME280;63814;50.118;8.714;2022-09-30T09:30:27;99789.44;;;21.86;36.82
75231;BME280;63814;50.118;8.714;2022-09-30T09:32:57;99789.78;;;22.15;36.10
75231;BME280;63814;50.118;8.714;2022-09-30T09:35:34;99730.25;;;22.99;33.18
75231;BME280;63814;50.118;8.714;2022-09-30T09:38:13;99791.50;;;23.09;33.62
75231;BME280;63814;50.118;8.714;2022-09-30T09:41:00;99787.59;;;23.50;33.54
75231;BME280;63814;50.118;8.714;2022-09-30T09:43:42;99783.34;;;23.71;32.88
75231;BME280;63814;50.118;8.714;2022-09-30T09:46:19;99789.78;;;23.92;33.28
75231;BME280;63814;50.118;8.714;2022-09-30T09:48:48;99788.38;;;23.81;32.00
75231;BME280;63814;50.118;8.714;2022-09-30T09:51:20;99785.53;;;24.56;31.38
75231;BME280;63814;50.118;8.714;2022-09-30T09:53:50;99781.41;;;24.54;31.12
75231;BME280;63814;50.118;8.714;2022-09-30T09:56:19;99797.81;;;24.44;32.76
75231;BME280;63814;50.118;8.714;2022-09-30T09:59:09;99790.31;;;24.02;32.19
75231;BME280;63814;50.118;8.714;2022-09-30T10:01:39;99796.34;;;24.85;30.88
75231;BME280;63814;50.118;8.714;2022-09-30T10:04:11;99733.25;;;25.17;29.62
75231;BME280;63814;50.118;8.714;2022-09-30T10:06:43;99777.72;;;24.55;30.43
75231;BME280;63814;50.118;8.714;2022-09-30T10:09:22;99791.13;;;25.34;29.02
75231;BME280;63814;50.118;8.714;2022-09-30T10:11:50;99796.72;;;25.67;29.11
75231;BME280;63814;50.118;8.714;2022-09-30T10:14:19;99790.47;;;25.25;29.09
75231;BME280;63814;50.118;8.714;2022-09-30T10:16:47;99799.31;;;24.75;29.77
75231;BME280;63814;50.118;8.714;2022-09-30T10:19:19;99791.63;;;26.42;28.37
75231;BME280;63814;50.118;8.714;2022-09-30T10:21:46;99772.88;;;25.99;28.47
75231;BME280;63814;50.118;8.714;2022-09-30T10:24:26;99781.31;;;26.52;27.74
75231;BME280;63814;50.118;8.714;2022-09-30T10:26:54;99767.88;;;26.52;27.91
75231;BME280;63814;50.118;8.714;2022-09-30T10:29:26;99778.84;;;26.77;27.58
75231;BME280;63814;50.118;8.714;2022-09-30T10:31:54;99772.06;;;26.95;26.94
75231;BME280;63814;50.118;8.714;2022-09-30T10:34:24;99780.06;;;27.22;26.64
75231;BME280;63814;50.118;8.714;2022-09-30T10:36:52;99773.19;;;27.53;25.75
75231;BME280;63814;50.118;8.714;2022-09-30T10:39:22;99781.34;;;27.92;25.53
75231;BME280;63814;50.118;8.714;2022-09-30T10:41:49;99779.44;;;27.99;25.20
75231;BME280;63814;50.118;8.714;2022-09-30T10:44:21;99765.28;;;28.50;25.89
75231;BME280;63814;50.118;8.714;2022-09-30T10:46:51;99759.97;;;27.97;24.99
75231;BME280;63814;50.118;8.714;2022-09-30T10:49:25;99775.50;;;28.02;25.39
75231;BME280;63814;50.118;8.714;2022-09-30T10:51:53;99778.31;;;27.75;25.96
75231;BME280;63814;50.118;8.714;2022-09-30T10:54:42;99694.88;;;27.61;25.29
75231;BME280;63814;50.118;8.714;2022-09-30T10:57:13;99753.38;;;27.27;26.09
75231;BME280;63814;50.118;8.714;2022-09-30T10:59:41;99755.44;;;28.62;24.86
75231;BME280;63814;50.118;8.714;2022-09-30T11:02:24;99773.41;;;27.45;25.94
75231;BME280;63814;50.118;8.714;2022-09-30T11:05:00;99764.03;;;28.13;25.12
75231;BME280;63814;50.118;8.714;2022-09-30T11:07:30;99765.94;;;28.06;25.60
75231;BME280;63814;50.118;8.714;2022-09-30T11:10:02;99755.38;;;28.69;24.02
75231;BME280;63814;50.118;8.714;2022-09-30T11:12:37;99761.41;;;28.00;24.67
75231;BME280;63814;50.118;8.714;2022-09-30T11:15:12;99763.34;;;26.93;26.31
75231;BME280;63814;50.118;8.714;2022-09-30T11:17:49;99760.97;;;27.57;26.36
75231;BME280;63814;50.118;8.714;2022-09-30T11:20:21;99764.56;;;26.84;26.71
75231;BME280;63814;50.118;8.714;2022-09-30T11:22:56;99761.31;;;24.43;29.64
75231;BME280;63814;50.118;8.714;2022-09-30T11:25:29;99779.72;;;22.57;32.07
75231;BME280;63814;50.118;8.714;2022-09-30T11:28:10;99755.06;;;23.83;30.58
75231;BME280;63814;50.118;8.714;2022-09-30T11:30:49;99761.94;;;25.52;27.74
75231;BME280;63814;50.118;8.714;2022-09-30T11:33:36;99749.03;;;26.32;26.36
75231;BME280;63814;50.118;8.714;2022-09-30T11:36:12;99747.97;;;27.27;26.04
75231;BME280;63814;50.118;8.714;2022-09-30T11:38:57;99672.94;;;26.72;25.51
75231;BME280;63814;50.118;8.714;2022-09-30T11:41:29;99736.69;;;27.71;24.86
75231;BME280;63814;50.118;8.714;2022-09-30T11:44:06;99739.53;;;28.79;24.72
75231;BME280;63814;50.118;8.714;2022-09-30T11:46:53;99743.50;;;28.51;24.29
75231;BME280;63814;50.118;8.714;2022-09-30T11:49:37;99729.91;;;28.39;22.62
75231;BME280;63814;50.118;8.714;2022-09-30T11:52:11;99757.56;;;29.04;22.46
75231;BME280;63814;50.118;8.714;2022-09-30T11:54:53;99746.56;;;28.55;22.96
75231;BME280;63814;50.118;8.714;2022-09-30T11:57:29;99746.56;;;29.80;22.44
75231;BME280;63814;50.118;8.714;2022-09-30T12:00:00;99743.06;;;29.61;21.89
75231;BME280;63814;50.118;8.714;2022-09-30T12:02:30;99750.63;;;28.96;21.81
75231;BME280;63814;50.118;8.714;2022-09-30T12:05:06;99753.41;;;28.25;22.37
75231;BME280;63814;50.118;8.714;2022-09-30T12:07:39;99760.22;;;26.49;24.55
75231;BME280;63814;50.118;8.714;2022-09-30T12:10:17;99771.22;;;24.71;26.91
75231;BME280;63814;50.118;8.714;2022-09-30T12:12:45;99781.91;;;22.77;28.98
75231;BME280;63814;50.118;8.714;2022-09-30T12:15:15;99775.22;;;23.79;27.95
75231;BME280;63814;50.118;8.714;2022-09-30T12:17:45;99762.84;;;25.02;26.37
75231;BME280;63814;50.118;8.714;2022-09-30T12:20:18;99739.09;;;26.32;25.02
75231;BME280;63814;50.118;8.714;2022-09-30T12:22:48;99752.03;;;27.63;23.83
75231;BME280;63814;50.118;8.714;2022-09-30T12:25:18;99766.03;;;25.48;25.80
75231;BME280;63814;50.118;8.714;2022-09-30T12:27:50;99757.47;;;23.03;28.80
75231;BME280;63814;50.118;8.714;2022-09-30T12:30:21;99773.81;;;21.66;30.80
75231;BME280;63814;50.118;8.714;2022-09-30T12:33:13;99779.63;;;21.05;31.94
75231;BME280;63814;50.118;8.714;2022-09-30T12:36:06;99774.59;;;20.52;33.05
75231;BME280;63814;50.118;8.714;2022-09-30T12:38:49;99775.19;;;21.62;31.70
75231;BME280;63814;50.118;8.714;2022-09-30T12:41:34;99774.75;;;23.76;29.35
75231;BME280;63814;50.118;8.714;2022-09-30T12:44:22;99745.59;;;25.89;26.05
75231;BME280;63814;50.118;8.714;2022-09-30T12:47:03;99743.69;;;26.59;25.13
75231;BME280;63814;50.118;8.714;2022-09-30T12:49:37;99777.75;;;24.03;27.36
75231;BME280;63814;50.118;8.714;2022-09-30T12:52:11;99775.81;;;21.73;31.75
75231;BME280;63814;50.118;8.714;2022-09-30T12:54:41;99759.53;;;23.46;28.51
75231;BME280;63814;50.118;8.714;2022-09-30T12:57:10;99762.72;;;24.39;27.73
75231;BME280;63814;50.118;8.714;2022-09-30T12:59:42;99775.59;;;22.69;28.89
75231;BME280;63814;50.118;8.714;2022-09-30T13:02:26;99785.94;;;20.63;32.15
75231;BME280;63814;50.118;8.714;2022-09-30T13:08:22;99765.06;;;21.89;30.55
75231;BME280;63814;50.118;8.714;2022-09-30T13:10:56;99763.09;;;24.14;27.38
75231;BME280;63814;50.118;8.714;2022-09-30T13:13:25;99770.69;;;22.58;28.92
75231;BME280;63814;50.118;8.714;2022-09-30T13:15:53;99769.22;;;22.24;30.43
75231;BME280;63814;50.118;8.714;2022-09-30T13:18:58;99782.25;;;20.47;32.90
75231;BME280;63814;50.118;8.714;2022-09-30T13:21:25;99769.94;;;19.52;33.71
75231;BME280;63814;50.118;8.714;2022-09-30T13:23:54;99770.09;;;19.24;35.27
75231;BME280;63814;50.118;8.714;2022-09-30T13:26:43;99768.25;;;20.45;33.37
75231;BME280;63814;50.118;8.714;2022-09-30T13:29:32;99753.19;;;23.32;29.42
75231;BME280;63814;50.118;8.714;2022-09-30T13:32:09;99737.56;;;23.21;29.22
75231;BME280;63814;50.118;8.714;2022-09-30T13:34:55;99725.03;;;21.49;32.26